sensor_id;sensor_type;location;lat;lon;timestamp;pressure;altitude;pressure_sealevel;temperature;humidity
44001;BME280;29660;42.892;24.710;2024-01-30T00:00:58;99206.78;;;0.63;100.00
44001;BME280;29660;42.892;24.710;2024-01-30T00:06:20;99153.53;;;0.38;100.00
44001;BME280;29660;42.892;24.710;2024-01-30T00:11:43;99210.91;;;0.65;100.00
44001;BME280;29660;42.892;24.710;2024-01-30T00:17:05;99220.63;;;0.48;100.00
44001;BME280;29660;42.892;24.710;2024-01-30T00:22:27;99209.81;;;0.52;100.00
44001;BME280;29660;42.892;24.710;2024-01-30T00:27:52;99057.13;;;-0.40;100.00
44001;BME280;29660;42.892;24.710;2024-01-30T00:33:14;99216.66;;;0.61;100.00
44001;BME280;29660;42.892;24.710;2024-01-30T00:38:37;99208.47;;;0.56;100.00
44001;BME280;29660;42.892;24.710;2024-01-30T00:43:59;99178.81;;;0.39;100.00
44001;BME280;29660;42.892;24.710;2024-01-30T00:49:21;99045.31;;;-0.36;100.00
44001;BME280;29660;42.892;24.710;2024-01-30T00:54:43;99205.03;;;0.63;100.00
44001;BME280;29660;42.892;24.710;2024-01-30T01:00:07;99149.00;;;0.15;100.00
44001;BME280;29660;42.892;24.710;2024-01-30T01:05:30;99221.78;;;0.46;100.00
44001;BME280;29660;42.892;24.710;2024-01-30T01:10:52;99207.66;;;0.47;100.00
44001;BME280;29660;42.892;24.710;2024-01-30T01:16:14;98821.66;;;-1.97;100.00
44001;BME280;29660;42.892;24.710;2024-01-30T01:21:36;99056.16;;;-0.31;100.00
44001;BME280;29660;42.892;24.710;2024-01-30T01:26:59;99188.97;;;0.42;100.00
44001;BME280;29660;42.892;24.710;2024-01-30T01:32:21;99197.03;;;0.40;100.00
44001;BME280;29660;42.892;24.710;2024-01-30T01:37:43;99109.53;;;-0.24;100.00
44001;BME280;29660;42.892;24.710;2024-01-30T01:43:05;99190.50;;;0.28;100.00
44001;BME280;29660;42.892;24.710;2024-01-30T01:48:28;99191.34;;;0.12;100.00
44001;BME280;29660;42.892;24.710;2024-01-30T01:53:51;99045.19;;;-0.67;100.00
44001;BME280;29660;42.892;24.710;2024-01-30T01:59:13;99143.47;;;-0.06;100.00
44001;BME280;29660;42.892;24.710;2024-01-30T02:04:36;99103.16;;;-0.21;100.00
44001;BME280;29660;42.892;24.710;2024-01-30T02:09:58;98782.75;;;-2.25;100.00
44001;BME280;29660;42.892;24.710;2024-01-30T02:15:20;99198.84;;;0.32;100.00
44001;BME280;29660;42.892;24.710;2024-01-30T02:20:43;99135.59;;;0.02;100.00
44001;BME280;29660;42.892;24.710;2024-01-30T02:26:05;99191.59;;;0.42;100.00
44001;BME280;29660;42.892;24.710;2024-01-30T02:31:27;99192.59;;;0.41;100.00
44001;BME280;29660;42.892;24.710;2024-01-30T02:36:49;99063.19;;;-0.56;100.00
44001;BME280;29660;42.892;24.710;2024-01-30T02:42:12;99240.34;;;0.20;100.00
44001;BME280;29660;42.892;24.710;2024-01-30T02:47:34;99215.75;;;0.13;100.00
44001;BME280;29660;42.892;24.710;2024-01-30T02:52:56;99099.75;;;-0.55;100.00
44001;BME280;29660;42.892;24.710;2024-01-30T02:58:18;99200.16;;;0.11;100.00
44001;BME280;29660;42.892;24.710;2024-01-30T03:03:40;99024.56;;;-0.87;100.00
44001;BME280;29660;42.892;24.710;2024-01-30T03:09:02;99170.81;;;-0.01;100.00
44001;BME280;29660;42.892;24.710;2024-01-30T03:14:26;99208.84;;;0.12;100.00
44001;BME280;29660;42.892;24.710;2024-01-30T03:19:48;99198.34;;;0.12;100.00
44001;BME280;29660;42.892;24.710;2024-01-30T03:25:10;99188.34;;;0.15;100.00
44001;BME280;29660;42.892;24.710;2024-01-30T03:30:34;99193.28;;;0.10;100.00
44001;BME280;29660;42.892;24.710;2024-01-30T03:35:56;99190.31;;;0.21;100.00
44001;BME280;29660;42.892;24.710;2024-01-30T03:41:18;99183.44;;;0.29;100.00
44001;BME280;29660;42.892;24.710;2024-01-30T03:46:40;99182.59;;;0.36;100.00
44001;BME280;29660;42.892;24.710;2024-01-30T03:52:02;99185.34;;;0.43;100.00
44001;BME280;29660;42.892;24.710;2024-01-30T03:57:25;99178.50;;;0.34;100.00
44001;BME280;29660;42.892;24.710;2024-01-30T04:02:47;99180.75;;;0.53;100.00
44001;BME280;29660;42.892;24.710;2024-01-30T04:08:09;99193.22;;;0.43;100.00
44001;BME280;29660;42.892;24.710;2024-01-30T04:13:32;99184.03;;;0.55;100.00
44001;BME280;29660;42.892;24.710;2024-01-30T04:18:55;99190.91;;;0.56;100.00
44001;BME280;29660;42.892;24.710;2024-01-30T04:24:18;99190.97;;;0.32;100.00
44001;BME280;29660;42.892;24.710;2024-01-30T04:29:40;99168.50;;;0.29;100.00
44001;BME280;29660;42.892;24.710;2024-01-30T04:35:03;99174.84;;;0.51;100.00
44001;BME280;29660;42.892;24.710;2024-01-30T04:40:28;99174.72;;;0.36;100.00
44001;BME280;29660;42.892;24.710;2024-01-30T04:45:50;99192.91;;;0.38;100.00
44001;BME280;29660;42.892;24.710;2024-01-30T04:51:12;99196.53;;;0.37;100.00
44001;BME280;29660;42.892;24.710;2024-01-30T04:56:34;99199.16;;;0.45;100.00
44001;BME280;29660;42.892;24.710;2024-01-30T05:01:57;99148.69;;;0.10;100.00
44001;BME280;29660;42.892;24.710;2024-01-30T05:07:19;99202.25;;;0.48;100.00
44001;BME280;29660;42.892;24.710;2024-01-30T05:12:42;99073.81;;;-0.25;100.00
44001;BME280;29660;42.892;24.710;2024-01-30T05:18:04;99203.72;;;0.51;100.00
44001;BME280;29660;42.892;24.710;2024-01-30T05:23:26;99200.44;;;0.57;100.00
44001;BME280;29660;42.892;24.710;2024-01-30T05:28:49;99205.19;;;0.54;100.00
44001;BME280;29660;42.892;24.710;2024-01-30T05:34:11;99192.94;;;0.30;100.00
44001;BME280;29660;42.892;24.710;2024-01-30T05:39:33;99199.69;;;0.24;100.00
44001;BME280;29660;42.892;24.710;2024-01-30T05:44:55;99227.25;;;0.20;100.00
44001;BME280;29660;42.892;24.710;2024-01-30T05:50:17;99220.34;;;0.03;100.00
44001;BME280;29660;42.892;24.710;2024-01-30T05:55:39;99234.28;;;0.03;100.00
44001;BME280;29660;42.892;24.710;2024-01-30T06:01:02;99233.97;;;-0.02;100.00
44001;BME280;29660;42.892;24.710;2024-01-30T06:06:24;99247.75;;;0.00;100.00
44001;BME280;29660;42.892;24.710;2024-01-30T06:11:46;99182.16;;;-0.25;100.00
44001;BME280;29660;42.892;24.710;2024-01-30T06:17:09;99231.31;;;0.06;100.00
44001;BME280;29660;42.892;24.710;2024-01-30T06:22:31;99095.16;;;-0.61;100.00
44001;BME280;29660;42.892;24.710;2024-01-30T06:27:53;99227.72;;;0.40;100.00
44001;BME280;29660;42.892;24.710;2024-01-30T06:33:15;99155.44;;;-0.28;100.00
44001;BME280;29660;42.892;24.710;2024-01-30T06:38:38;99236.25;;;0.26;100.00
44001;BME280;29660;42.892;24.710;2024-01-30T06:44:02;99207.88;;;0.21;100.00
44001;BME280;29660;42.892;24.710;2024-01-30T06:49:25;99242.97;;;0.44;100.00
44001;BME280;29660;42.892;24.710;2024-01-30T06:54:47;99204.09;;;0.32;100.00
44001;BME280;29660;42.892;24.710;2024-01-30T07:00:10;99238.78;;;0.66;100.00
44001;BME280;29660;42.892;24.710;2024-01-30T07:05:32;99101.53;;;-0.39;100.00
44001;BME280;29660;42.892;24.710;2024-01-30T07:10:54;99181.44;;;0.31;100.00
44001;BME280;29660;42.892;24.710;2024-01-30T07:16:20;99238.94;;;0.73;100.00
44001;BME280;29660;42.892;24.710;2024-01-30T07:21:42;99151.97;;;0.20;100.00
44001;BME280;29660;42.892;24.710;2024-01-30T07:27:04;99186.38;;;0.34;100.00
44001;BME280;29660;42.892;24.710;2024-01-30T07:32:27;99142.63;;;0.10;100.00
44001;BME280;29660;42.892;24.710;2024-01-30T07:37:49;99218.63;;;0.67;100.00
44001;BME280;29660;42.892;24.710;2024-01-30T07:43:11;99248.03;;;1.02;100.00
44001;BME280;29660;42.892;24.710;2024-01-30T07:48:34;99247.88;;;1.11;100.00
44001;BME280;29660;42.892;24.710;2024-01-30T07:53:56;99163.75;;;0.80;100.00
44001;BME280;29660;42.892;24.710;2024-01-30T07:59:37;99156.31;;;0.92;100.00
44001;BME280;29660;42.892;24.710;2024-01-30T08:04:59;99207.50;;;1.35;100.00
44001;BME280;29660;42.892;24.710;2024-01-30T08:10:22;99237.81;;;1.54;100.00
44001;BME280;29660;42.892;24.710;2024-01-30T08:15:44;99034.50;;;0.62;100.00
44001;BME280;29660;42.892;24.710;2024-01-30T08:21:07;99212.66;;;1.98;98.57
44001;BME280;29660;42.892;24.710;2024-01-30T08:26:30;99190.97;;;1.72;96.43
44001;BME280;29660;42.892;24.710;2024-01-30T08:31:52;99150.06;;;1.47;95.71
44001;BME280;29660;42.892;24.710;2024-01-30T08:37:14;99221.91;;;2.16;94.26
44001;BME280;29660;42.892;24.710;2024-01-30T08:42:38;99241.53;;;2.29;92.78
44001;BME280;29660;42.892;24.710;2024-01-30T08:48:00;99231.34;;;2.26;89.95
44001;BME280;29660;42.892;24.710;2024-01-30T08:53:23;99214.47;;;2.35;88.28
44001;BME280;29660;42.892;24.710;2024-01-30T08:58:45;99230.56;;;2.40;88.42
44001;BME280;29660;42.892;24.710;2024-01-30T09:04:07;99238.00;;;2.36;84.63
44001;BME280;29660;42.892;24.710;2024-01-30T09:09:29;99227.38;;;2.30;84.38
44001;BME280;29660;42.892;24.710;2024-01-30T09:14:51;99227.44;;;2.21;85.22
44001;BME280;29660;42.892;24.710;2024-01-30T09:20:13;99231.00;;;2.29;85.14
44001;BME280;29660;42.892;24.710;2024-01-30T09:25:35;99225.75;;;2.29;83.54
44001;BME280;29660;42.892;24.710;2024-01-30T09:30:58;99222.34;;;2.20;85.36
44001;BME280;29660;42.892;24.710;2024-01-30T09:36:20;99217.75;;;2.37;83.46
44001;BME280;29660;42.892;24.710;2024-01-30T09:41:49;99192.63;;;2.11;84.55
44001;BME280;29660;42.892;24.710;2024-01-30T09:47:16;99201.31;;;2.35;82.44
44001;BME280;29660;42.892;24.710;2024-01-30T09:52:39;99202.03;;;2.43;82.00
44001;BME280;29660;42.892;24.710;2024-01-30T09:58:01;99198.97;;;2.40;81.00
44001;BME280;29660;42.892;24.710;2024-01-30T10:03:23;99189.97;;;2.34;77.59
44001;BME280;29660;42.892;24.710;2024-01-30T10:08:45;99192.78;;;1.95;73.78
44001;BME280;29660;42.892;24.710;2024-01-30T10:14:07;99196.69;;;1.99;73.54
44001;BME280;29660;42.892;24.710;2024-01-30T10:19:30;99195.47;;;1.87;74.45
44001;BME280;29660;42.892;24.710;2024-01-30T10:24:52;99190.56;;;1.61;75.91
44001;BME280;29660;42.892;24.710;2024-01-30T10:30:14;99173.84;;;1.77;75.36
44001;BME280;29660;42.892;24.710;2024-01-30T10:35:36;98940.47;;;0.34;75.29
44001;BME280;29660;42.892;24.710;2024-01-30T10:41:01;99180.28;;;1.97;75.63
44001;BME280;29660;42.892;24.710;2024-01-30T10:46:30;99187.16;;;1.98;75.75
44001;BME280;29660;42.892;24.710;2024-01-30T10:51:54;99118.50;;;1.70;74.11
44001;BME280;29660;42.892;24.710;2024-01-30T10:57:18;99173.81;;;1.85;70.33
44001;BME280;29660;42.892;24.710;2024-01-30T11:02:42;99180.38;;;2.04;70.64
44001;BME280;29660;42.892;24.710;2024-01-30T11:08:14;99122.59;;;1.72;70.95
44001;BME280;29660;42.892;24.710;2024-01-30T11:13:36;99124.50;;;1.79;68.03
44001;BME280;29660;42.892;24.710;2024-01-30T11:19:00;99124.84;;;2.13;68.38
44001;BME280;29660;42.892;24.710;2024-01-30T11:24:24;99135.22;;;2.30;64.77
44001;BME280;29660;42.892;24.710;2024-01-30T11:29:49;98994.56;;;1.35;64.71
44001;BME280;29660;42.892;24.710;2024-01-30T11:35:12;99138.03;;;2.13;68.14
44001;BME280;29660;42.892;24.710;2024-01-30T11:40:35;99139.53;;;2.08;68.69
44001;BME280;29660;42.892;24.710;2024-01-30T11:45:58;99137.78;;;2.00;69.17
44001;BME280;29660;42.892;24.710;2024-01-30T11:51:20;99125.22;;;2.10;68.91
44001;BME280;29660;42.892;24.710;2024-01-30T11:56:42;99121.09;;;1.93;69.23
44001;BME280;29660;42.892;24.710;2024-01-30T12:02:07;99109.69;;;2.01;66.72
44001;BME280;29660;42.892;24.710;2024-01-30T12:07:30;99001.44;;;1.36;67.25
44001;BME280;29660;42.892;24.710;2024-01-30T12:12:53;99114.50;;;2.27;68.73
44001;BME280;29660;42.892;24.710;2024-01-30T12:18:18;98933.56;;;1.02;65.12
44001;BME280;29660;42.892;24.710;2024-01-30T12:23:41;99095.50;;;1.87;65.31
44001;BME280;29660;42.892;24.710;2024-01-30T12:29:04;99053.50;;;1.79;66.11
44001;BME280;29660;42.892;24.710;2024-01-30T12:34:26;99081.56;;;2.01;65.68
44001;BME280;29660;42.892;24.710;2024-01-30T12:39:48;99048.59;;;1.90;63.90
44001;BME280;29660;42.892;24.710;2024-01-30T12:45:10;99083.91;;;2.11;64.89
44001;BME280;29660;42.892;24.710;2024-01-30T12:50:32;99082.16;;;1.88;65.40
44001;BME280;29660;42.892;24.710;2024-01-30T12:55:55;99087.38;;;1.96;66.27
44001;BME280;29660;42.892;24.710;2024-01-30T13:01:17;99076.25;;;1.71;67.42
44001;BME280;29660;42.892;24.710;2024-01-30T13:06:39;99079.72;;;1.49;67.93
44001;BME280;29660;42.892;24.710;2024-01-30T13:12:01;99083.84;;;1.66;68.36
44001;BME280;29660;42.892;24.710;2024-01-30T13:17:23;99096.31;;;1.87;68.87
44001;BME280;29660;42.892;24.710;2024-01-30T13:22:49;99084.28;;;1.93;68.98
44001;BME280;29660;42.892;24.710;2024-01-30T13:28:13;99074.56;;;1.93;69.14
44001;BME280;29660;42.892;24.710;2024-01-30T13:33:35;99072.63;;;1.87;67.55
44001;BME280;29660;42.892;24.710;2024-01-30T13:38:58;99070.94;;;2.09;68.18
44001;BME280;29660;42.892;24.710;2024-01-30T13:44:20;99063.13;;;2.01;66.12
44001;BME280;29660;42.892;24.710;2024-01-30T13:49:43;99039.59;;;1.70;63.43
44001;BME280;29660;42.892;24.710;2024-01-30T13:55:05;99062.41;;;2.07;62.14
44001;BME280;29660;42.892;24.710;2024-01-30T14:00:27;99044.03;;;1.84;59.69
44001;BME280;29660;42.892;24.710;2024-01-30T14:05:49;99047.91;;;1.96;60.47
44001;BME280;29660;42.892;24.710;2024-01-30T14:11:12;98721.56;;;-0.09;60.02
44001;BME280;29660;42.892;24.710;2024-01-30T14:16:34;99004.13;;;1.51;60.63
44001;BME280;29660;42.892;24.710;2024-01-30T14:21:56;99055.56;;;1.83;60.11
44001;BME280;29660;42.892;24.710;2024-01-30T14:27:18;99014.91;;;1.56;60.71
44001;BME280;29660;42.892;24.710;2024-01-30T14:32:40;98943.16;;;1.33;61.14
44001;BME280;29660;42.892;24.710;2024-01-30T14:38:04;99017.56;;;1.86;60.17
44001;BME280;29660;42.892;24.710;2024-01-30T14:43:27;98987.53;;;1.65;59.76
44001;BME280;29660;42.892;24.710;2024-01-30T14:48:49;99034.75;;;1.96;60.26
44001;BME280;29660;42.892;24.710;2024-01-30T14:54:13;99012.38;;;1.92;59.35
44001;BME280;29660;42.892;24.710;2024-01-30T14:59:35;98996.72;;;1.69;59.71
44001;BME280;29660;42.892;24.710;2024-01-30T15:04:57;99020.22;;;1.86;59.96
44001;BME280;29660;42.892;24.710;2024-01-30T15:10:19;99028.38;;;1.91;60.40
44001;BME280;29660;42.892;24.710;2024-01-30T15:15:42;98931.75;;;1.40;60.39
44001;BME280;29660;42.892;24.710;2024-01-30T15:21:04;98854.22;;;0.92;60.83
44001;BME280;29660;42.892;24.710;2024-01-30T15:26:26;99019.56;;;1.84;61.10
44001;BME280;29660;42.892;24.710;2024-01-30T15:31:48;99042.78;;;1.95;61.59
44001;BME280;29660;42.892;24.710;2024-01-30T15:37:10;99050.28;;;1.68;64.12
44001;BME280;29660;42.892;24.710;2024-01-30T15:42:32;99041.88;;;1.73;65.98
44001;BME280;29660;42.892;24.710;2024-01-30T15:47:55;98932.28;;;0.83;64.62
44001;BME280;29660;42.892;24.710;2024-01-30T15:53:17;99049.97;;;1.34;62.38
44001;BME280;29660;42.892;24.710;2024-01-30T15:58:39;99022.19;;;1.31;60.57
44001;BME280;29660;42.892;24.710;2024-01-30T16:04:01;99027.63;;;1.30;60.03
44001;BME280;29660;42.892;24.710;2024-01-30T16:09:24;99041.28;;;1.48;60.33
44001;BME280;29660;42.892;24.710;2024-01-30T16:14:46;98985.44;;;1.08;60.18
44001;BME280;29660;42.892;24.710;2024-01-30T16:20:08;99042.16;;;1.40;66.54
44001;BME280;29660;42.892;24.710;2024-01-30T16:25:31;99040.06;;;0.90;74.51
44001;BME280;29660;42.892;24.710;2024-01-30T16:30:53;98846.34;;;-0.54;76.98
44001;BME280;29660;42.892;24.710;2024-01-30T16:36:15;98627.25;;;-2.04;79.65
44001;BME280;29660;42.892;24.710;2024-01-30T16:41:38;99058.31;;;0.60;79.82
44001;BME280;29660;42.892;24.710;2024-01-30T16:47:00;98876.56;;;-0.75;80.71
44001;BME280;29660;42.892;24.710;2024-01-30T16:52:22;99076.41;;;0.47;83.16
44001;BME280;29660;42.892;24.710;2024-01-30T16:57:45;99056.78;;;0.35;83.13
44001;BME280;29660;42.892;24.710;2024-01-30T17:03:07;98933.97;;;-0.48;81.81
44001;BME280;29660;42.892;24.710;2024-01-30T17:08:31;98943.78;;;-0.42;81.06
44001;BME280;29660;42.892;24.710;2024-01-30T17:13:54;99082.22;;;0.26;83.22
44001;BME280;29660;42.892;24.710;2024-01-30T17:19:16;98858.47;;;-1.17;84.69
44001;BME280;29660;42.892;24.710;2024-01-30T17:24:39;99080.34;;;-0.13;87.28
44001;BME280;29660;42.892;24.710;2024-01-30T17:30:07;99087.88;;;0.07;87.50
44001;BME280;29660;42.892;24.710;2024-01-30T17:35:29;99090.34;;;0.00;86.43
44001;BME280;29660;42.892;24.710;2024-01-30T17:40:51;99097.06;;;-0.06;87.60
44001;BME280;29660;42.892;24.710;2024-01-30T17:46:22;99101.34;;;-0.13;88.11
44001;BME280;29660;42.892;24.710;2024-01-30T17:51:45;98932.91;;;-1.44;91.72
44001;BME280;29660;42.892;24.710;2024-01-30T17:57:08;98942.75;;;-1.30;89.99
44001;BME280;29660;42.892;24.710;2024-01-30T18:02:30;99098.25;;;-0.41;91.30
44001;BME280;29660;42.892;24.710;2024-01-30T18:07:52;99046.00;;;-0.83;93.33
44001;BME280;29660;42.892;24.710;2024-01-30T18:13:14;99089.41;;;-0.72;94.81
44001;BME280;29660;42.892;24.710;2024-01-30T18:18:38;99084.81;;;-0.79;94.83
44001;BME280;29660;42.892;24.710;2024-01-30T18:24:01;99111.25;;;-1.14;98.11
44001;BME280;29660;42.892;24.710;2024-01-30T18:29:23;99089.81;;;-1.18;98.14
44001;BME280;29660;42.892;24.710;2024-01-30T18:34:45;98912.22;;;-2.38;98.84
44001;BME280;29660;42.892;24.710;2024-01-30T18:40:08;99114.44;;;-1.53;99.75
44001;BME280;29660;42.892;24.710;2024-01-30T18:45:30;99085.31;;;-1.50;99.53
44001;BME280;29660;42.892;24.710;2024-01-30T18:50:52;99049.13;;;-1.63;100.00
44001;BME280;29660;42.892;24.710;2024-01-30T18:56:14;99081.38;;;-1.46;100.00
44001;BME280;29660;42.892;24.710;2024-01-30T19:01:39;99086.22;;;-1.67;100.00
44001;BME280;29660;42.892;24.710;2024-01-30T19:07:01;98974.28;;;-2.32;100.00
44001;BME280;29660;42.892;24.710;2024-01-30T19:12:25;99077.53;;;-1.76;100.00
44001;BME280;29660;42.892;24.710;2024-01-30T19:17:47;99084.41;;;-2.01;100.00
44001;BME280;29660;42.892;24.710;2024-01-30T19:23:09;99067.00;;;-2.18;100.00
44001;BME280;29660;42.892;24.710;2024-01-30T19:28:31;99084.75;;;-2.04;100.00
44001;BME280;29660;42.892;24.710;2024-01-30T19:33:53;99078.44;;;-2.19;100.00
44001;BME280;29660;42.892;24.710;2024-01-30T19:39:16;99061.03;;;-2.29;100.00
44001;BME280;29660;42.892;24.710;2024-01-30T19:44:38;99076.78;;;-2.20;100.00
44001;BME280;29660;42.892;24.710;2024-01-30T19:50:00;99019.22;;;-2.81;100.00
44001;BME280;29660;42.892;24.710;2024-01-30T19:55:22;99092.66;;;-2.40;100.00
44001;BME280;29660;42.892;24.710;2024-01-30T20:00:47;98933.88;;;-3.42;100.00
44001;BME280;29660;42.892;24.710;2024-01-30T20:06:12;99076.13;;;-2.66;100.00
44001;BME280;29660;42.892;24.710;2024-01-30T20:11:34;99086.53;;;-2.75;100.00
44001;BME280;29660;42.892;24.710;2024-01-30T20:16:56;98926.13;;;-3.70;100.00
44001;BME280;29660;42.892;24.710;2024-01-30T20:22:19;99072.06;;;-2.87;100.00
44001;BME280;29660;42.892;24.710;2024-01-30T20:27:41;99068.47;;;-3.04;100.00
44001;BME280;29660;42.892;24.710;2024-01-30T20:33:04;99064.56;;;-3.00;100.00
44001;BME280;29660;42.892;24.710;2024-01-30T20:38:26;99034.59;;;-3.31;100.00
44001;BME280;29660;42.892;24.710;2024-01-30T20:43:48;98999.78;;;-3.40;100.00
44001;BME280;29660;42.892;24.710;2024-01-30T20:49:11;99054.72;;;-3.24;100.00
44001;BME280;29660;42.892;24.710;2024-01-30T20:54:36;98865.16;;;-4.40;100.00
44001;BME280;29660;42.892;24.710;2024-01-30T20:59:58;99054.94;;;-3.35;100.00
44001;BME280;29660;42.892;24.710;2024-01-30T21:05:20;99053.47;;;-3.37;100.00
44001;BME280;29660;42.892;24.710;2024-01-30T21:10:45;98943.97;;;-4.10;100.00
44001;BME280;29660;42.892;24.710;2024-01-30T21:16:07;99048.28;;;-3.47;100.00
44001;BME280;29660;42.892;24.710;2024-01-30T21:21:29;99051.41;;;-3.61;100.00
44001;BME280;29660;42.892;24.710;2024-01-30T21:26:51;99052.06;;;-3.59;100.00
44001;BME280;29660;42.892;24.710;2024-01-30T21:32:13;98939.22;;;-4.25;100.00
44001;BME280;29660;42.892;24.710;2024-01-30T21:37:37;99042.31;;;-3.57;100.00
44001;BME280;29660;42.892;24.710;2024-01-30T21:42:59;99041.78;;;-3.61;100.00
44001;BME280;29660;42.892;24.710;2024-01-30T21:48:22;99040.44;;;-3.65;100.00
44001;BME280;29660;42.892;24.710;2024-01-30T21:53:44;98910.63;;;-4.62;100.00
44001;BME280;29660;42.892;24.710;2024-01-30T21:59:06;99026.19;;;-3.98;100.00
44001;BME280;29660;42.892;24.710;2024-01-30T22:04:28;99063.22;;;-3.95;100.00
44001;BME280;29660;42.892;24.710;2024-01-30T22:09:50;98879.59;;;-4.83;100.00
44001;BME280;29660;42.892;24.710;2024-01-30T22:15:13;99024.09;;;-3.85;100.00
44001;BME280;29660;42.892;24.710;2024-01-30T22:20:35;99018.56;;;-3.82;100.00
44001;BME280;29660;42.892;24.710;2024-01-30T22:25:58;98858.47;;;-4.80;100.00
44001;BME280;29660;42.892;24.710;2024-01-30T22:31:20;98881.50;;;-4.75;100.00
44001;BME280;29660;42.892;24.710;2024-01-30T22:36:43;98993.63;;;-4.12;100.00
44001;BME280;29660;42.892;24.710;2024-01-30T22:42:05;98941.69;;;-4.51;100.00
44001;BME280;29660;42.892;24.710;2024-01-30T22:47:27;98993.09;;;-4.15;100.00
44001;BME280;29660;42.892;24.710;2024-01-30T22:52:51;98997.94;;;-4.30;100.00
44001;BME280;29660;42.892;24.710;2024-01-30T22:58:13;98992.34;;;-4.45;100.00
44001;BME280;29660;42.892;24.710;2024-01-30T23:03:36;99004.13;;;-4.41;100.00
44001;BME280;29660;42.892;24.710;2024-01-30T23:08:58;98862.47;;;-5.23;100.00
44001;BME280;29660;42.892;24.710;2024-01-30T23:14:21;98988.00;;;-4.54;100.00
44001;BME280;29660;42.892;24.710;2024-01-30T23:19:43;98989.91;;;-4.56;100.00
44001;BME280;29660;42.892;24.710;2024-01-30T23:25:05;98982.53;;;-4.61;100.00
44001;BME280;29660;42.892;24.710;2024-01-30T23:30:28;98990.22;;;-4.69;100.00
44001;BME280;29660;42.892;24.710;2024-01-30T23:35:51;98977.63;;;-4.74;100.00
44001;BME280;29660;42.892;24.710;2024-01-30T23:41:13;98977.91;;;-4.77;100.00
44001;BME280;29660;42.892;24.710;2024-01-30T23:46:35;98972.81;;;-4.69;100.00
44001;BME280;29660;42.892;24.710;2024-01-30T23:51:57;98936.47;;;-5.07;100.00
44001;BME280;29660;42.892;24.710;2024-01-30T23:57:19;98956.44;;;-4.88;100.00
